DHK7LM EGLL-EGPH
Flight info
| Callsign | DHK7LM |
|---|---|
| Flight time | 0h 53m |
| Altitude | 36000 |
| Route | ULTIB T420 TNT UN57 POL UN601 RIBEL DCT INPIP |
| Aircraft | B77L/H-SDE1E2E3FGHIJ2J3J4J5M1RWXY/LB1D1 |
Departure
| Time | 2026-05-07 20:00 |
|---|---|
| Airport | London Heathrow Airport (EGLL) |
Arrival
| Time | 2026-05-07 20:53 |
|---|---|
| Airport | Edinburgh Airport (EGPH) |
| Time | Latitude | Longitude | Altitude | Speed | Heading |
|---|---|---|---|---|---|
| 2026-05-07 19:33 | 51.46853 | -0.43090 | 96 ft | 0 kts | 246° |
| 2026-05-07 19:44 | 51.46854 | -0.43089 | 93 ft | 2 kts | 246° |
| 2026-05-07 19:44 | 51.46863 | -0.43051 | 94 ft | 4 kts | 251° |
| 2026-05-07 19:45 | 51.46872 | -0.43010 | 92 ft | 4 kts | 250° |
| 2026-05-07 19:45 | 51.46881 | -0.42971 | 93 ft | 4 kts | 248° |
| 2026-05-07 19:45 | 51.46881 | -0.42951 | 91 ft | 3 kts | 337° |
| 2026-05-07 19:45 | 51.46866 | -0.42941 | 92 ft | 2 kts | 340° |
| 2026-05-07 19:46 | 51.46856 | -0.42935 | 91 ft | 2 kts | 340° |
| 2026-05-07 19:46 | 51.46853 | -0.42934 | 91 ft | 0 kts | 340° |
| 2026-05-07 19:46 | 51.46854 | -0.42934 | 91 ft | 1 kts | 340° |
| 2026-05-07 19:47 | 51.46880 | -0.42949 | 91 ft | 7 kts | 340° |
| 2026-05-07 19:47 | 51.46948 | -0.42992 | 94 ft | 13 kts | 340° |
| 2026-05-07 19:47 | 51.47044 | -0.43053 | 93 ft | 16 kts | 328° |
| 2026-05-07 19:47 | 51.47104 | -0.43203 | 91 ft | 17 kts | 284° |
| 2026-05-07 19:48 | 51.47137 | -0.43393 | 93 ft | 19 kts | 289° |
| 2026-05-07 19:48 | 51.47154 | -0.43587 | 91 ft | 17 kts | 257° |
| 2026-05-07 19:48 | 51.47151 | -0.43607 | 91 ft | 0 kts | 259° |
| 2026-05-07 19:49 | 51.47151 | -0.43609 | 91 ft | 1 kts | 259° |
| 2026-05-07 19:49 | 51.47147 | -0.43639 | 93 ft | 5 kts | 259° |
| 2026-05-07 19:49 | 51.47130 | -0.43710 | 95 ft | 8 kts | 230° |
| 2026-05-07 19:49 | 51.47065 | -0.43747 | 93 ft | 12 kts | 185° |
| 2026-05-07 19:50 | 51.46972 | -0.43745 | 91 ft | 15 kts | 179° |
| 2026-05-07 19:50 | 51.46856 | -0.43753 | 94 ft | 18 kts | 191° |
| 2026-05-07 19:50 | 51.46773 | -0.43895 | 94 ft | 21 kts | 263° |
| 2026-05-07 19:50 | 51.46753 | -0.44147 | 93 ft | 24 kts | 265° |
| 2026-05-07 19:51 | 51.46752 | -0.44420 | 95 ft | 25 kts | 269° |
| 2026-05-07 19:51 | 51.46750 | -0.44693 | 96 ft | 20 kts | 269° |
| 2026-05-07 19:51 | 51.46751 | -0.44933 | 97 ft | 23 kts | 270° |
| 2026-05-07 19:51 | 51.46752 | -0.45213 | 95 ft | 15 kts | 269° |
| 2026-05-07 19:52 | 51.46751 | -0.45367 | 94 ft | 16 kts | 269° |
| 2026-05-07 19:52 | 51.46749 | -0.45585 | 90 ft | 22 kts | 269° |
| 2026-05-07 19:52 | 51.46748 | -0.45846 | 96 ft | 25 kts | 269° |
| 2026-05-07 19:52 | 51.46748 | -0.46142 | 96 ft | 28 kts | 270° |
| 2026-05-07 19:53 | 51.46746 | -0.46452 | 97 ft | 29 kts | 270° |
| 2026-05-07 19:53 | 51.46748 | -0.46774 | 98 ft | 30 kts | 271° |
| 2026-05-07 19:53 | 51.46746 | -0.47113 | 96 ft | 33 kts | 269° |
| 2026-05-07 19:53 | 51.46745 | -0.47499 | 89 ft | 37 kts | 270° |
| 2026-05-07 19:54 | 51.46744 | -0.47857 | 94 ft | 23 kts | 268° |
| 2026-05-07 19:54 | 51.46743 | -0.48101 | 96 ft | 23 kts | 270° |
| 2026-05-07 19:54 | 51.46743 | -0.48373 | 98 ft | 27 kts | 270° |
| 2026-05-07 19:54 | 51.46734 | -0.48682 | 98 ft | 20 kts | 248° |
| 2026-05-07 19:55 | 51.46617 | -0.48758 | 98 ft | 7 kts | 195° |
| 2026-05-07 19:55 | 51.46614 | -0.48760 | 97 ft | 0 kts | 196° |
| 2026-05-07 19:57 | 51.46598 | -0.48767 | 76 ft | 6 kts | 195° |
| 2026-05-07 19:57 | 51.46533 | -0.48774 | 97 ft | 12 kts | 168° |
| 2026-05-07 19:58 | 51.46479 | -0.48663 | 97 ft | 15 kts | 99° |
| 2026-05-07 19:58 | 51.46478 | -0.48585 | 97 ft | 0 kts | 89° |
| 2026-05-07 19:59 | 51.46479 | -0.48342 | 99 ft | 55 kts | 89° |
| 2026-05-07 19:59 | 51.46483 | -0.47293 | 96 ft | 131 kts | 89° |
| 2026-05-07 19:59 | 51.46489 | -0.45467 | 95 ft | 194 kts | 90° |
| 2026-05-07 19:59 | 51.46489 | -0.43183 | 389 ft | 213 kts | 91° |
| 2026-05-07 20:00 | 51.46561 | -0.41656 | 910 ft | 202 kts | 77° |
| 2026-05-07 20:00 | 51.47582 | -0.38987 | 1178 ft | 222 kts | 50° |
| 2026-05-07 20:00 | 51.48262 | -0.37671 | 1140 ft | 241 kts | 53° |
| 2026-05-07 20:00 | 51.49349 | -0.35480 | 1486 ft | 254 kts | 52° |
| 2026-05-07 20:01 | 51.50459 | -0.33252 | 2117 ft | 256 kts | 52° |
| 2026-05-07 20:01 | 51.51572 | -0.31033 | 2856 ft | 254 kts | 52° |
| 2026-05-07 20:01 | 51.53382 | -0.28701 | 3633 ft | 259 kts | 19° |
| 2026-05-07 20:01 | 51.55172 | -0.28376 | 4201 ft | 262 kts | 354° |
| 2026-05-07 20:02 | 51.56393 | -0.28658 | 4541 ft | 265 kts | 352° |
| 2026-05-07 20:02 | 51.58228 | -0.29152 | 4932 ft | 271 kts | 351° |
| 2026-05-07 20:02 | 51.60094 | -0.29649 | 4955 ft | 270 kts | 351° |
| 2026-05-07 20:02 | 51.61901 | -0.30306 | 4964 ft | 265 kts | 336° |
| 2026-05-07 20:03 | 51.63514 | -0.31695 | 4983 ft | 261 kts | 329° |
| 2026-05-07 20:03 | 51.65093 | -0.33131 | 4985 ft | 261 kts | 332° |
| 2026-05-07 20:03 | 51.66681 | -0.34471 | 5021 ft | 260 kts | 333° |
| 2026-05-07 20:03 | 51.68298 | -0.35778 | 5064 ft | 259 kts | 334° |
| 2026-05-07 20:04 | 51.69920 | -0.37050 | 5106 ft | 263 kts | 334° |
| 2026-05-07 20:04 | 51.71587 | -0.38332 | 5545 ft | 269 kts | 334° |
| 2026-05-07 20:04 | 51.73288 | -0.39622 | 6169 ft | 270 kts | 334° |
| 2026-05-07 20:04 | 51.74998 | -0.40907 | 6798 ft | 271 kts | 334° |
| 2026-05-07 20:05 | 51.76720 | -0.42193 | 7351 ft | 274 kts | 334° |
| 2026-05-07 20:05 | 51.78461 | -0.43490 | 7921 ft | 277 kts | 334° |
| 2026-05-07 20:05 | 51.80226 | -0.44802 | 8468 ft | 280 kts | 334° |
| 2026-05-07 20:05 | 51.82005 | -0.46124 | 8995 ft | 284 kts | 333° |
| 2026-05-07 20:06 | 51.83813 | -0.47467 | 9507 ft | 288 kts | 333° |
| 2026-05-07 20:06 | 51.85635 | -0.48821 | 10064 ft | 290 kts | 333° |
| 2026-05-07 20:06 | 51.87477 | -0.50190 | 10533 ft | 292 kts | 333° |
| 2026-05-07 20:06 | 51.89335 | -0.51573 | 11004 ft | 295 kts | 333° |
| 2026-05-07 20:07 | 51.91208 | -0.52968 | 11475 ft | 298 kts | 333° |
| 2026-05-07 20:07 | 51.93103 | -0.54380 | 11953 ft | 301 kts | 333° |
| 2026-05-07 20:07 | 51.94987 | -0.55878 | 12403 ft | 303 kts | 329° |
| 2026-05-07 20:07 | 51.96836 | -0.57630 | 12661 ft | 315 kts | 327° |
| 2026-05-07 20:08 | 51.98754 | -0.59542 | 12810 ft | 330 kts | 326° |
| 2026-05-07 20:08 | 52.00742 | -0.61530 | 13109 ft | 340 kts | 327° |
| 2026-05-07 20:08 | 52.02789 | -0.63561 | 13565 ft | 347 kts | 327° |
| 2026-05-07 20:08 | 52.04863 | -0.65606 | 14075 ft | 350 kts | 327° |
| 2026-05-07 20:09 | 52.06951 | -0.67657 | 14600 ft | 352 kts | 327° |
| 2026-05-07 20:09 | 52.09059 | -0.69724 | 15161 ft | 353 kts | 327° |
| 2026-05-07 20:09 | 52.11164 | -0.71790 | 15709 ft | 355 kts | 327° |
| 2026-05-07 20:10 | 52.15416 | -0.75982 | 16729 ft | 359 kts | 327° |
| 2026-05-07 20:10 | 52.17562 | -0.78109 | 17243 ft | 362 kts | 326° |
| 2026-05-07 20:10 | 52.19687 | -0.80218 | 17739 ft | 364 kts | 326° |
| 2026-05-07 20:10 | 52.21857 | -0.82371 | 18258 ft | 366 kts | 326° |
| 2026-05-07 20:11 | 52.24035 | -0.84536 | 18701 ft | 368 kts | 326° |
| 2026-05-07 20:11 | 52.26227 | -0.86714 | 19128 ft | 370 kts | 326° |
| 2026-05-07 20:11 | 52.28434 | -0.88901 | 19586 ft | 372 kts | 326° |
| 2026-05-07 20:11 | 52.30655 | -0.91102 | 20008 ft | 374 kts | 326° |
| 2026-05-07 20:12 | 52.32885 | -0.93316 | 20439 ft | 376 kts | 326° |
| 2026-05-07 20:12 | 52.35129 | -0.95547 | 20890 ft | 378 kts | 326° |
| 2026-05-07 20:12 | 52.37376 | -0.97783 | 21324 ft | 379 kts | 326° |
| 2026-05-07 20:12 | 52.39641 | -1.00041 | 21761 ft | 381 kts | 326° |
| 2026-05-07 20:13 | 52.41913 | -1.02309 | 22178 ft | 384 kts | 326° |
| 2026-05-07 20:13 | 52.44198 | -1.04591 | 22552 ft | 386 kts | 326° |
| 2026-05-07 20:13 | 52.46473 | -1.06866 | 22944 ft | 389 kts | 326° |
| 2026-05-07 20:13 | 52.48785 | -1.09182 | 23356 ft | 390 kts | 326° |
| 2026-05-07 20:14 | 52.51106 | -1.11526 | 23748 ft | 392 kts | 326° |
| 2026-05-07 20:14 | 52.53427 | -1.13882 | 24107 ft | 393 kts | 325° |
| 2026-05-07 20:14 | 52.55756 | -1.16249 | 24470 ft | 394 kts | 325° |
| 2026-05-07 20:14 | 52.58097 | -1.18624 | 24815 ft | 396 kts | 326° |
| 2026-05-07 20:15 | 52.60454 | -1.21010 | 25127 ft | 398 kts | 326° |
| 2026-05-07 20:15 | 52.62820 | -1.23405 | 25494 ft | 399 kts | 325° |
| 2026-05-07 20:15 | 52.65191 | -1.25808 | 25807 ft | 402 kts | 325° |
| 2026-05-07 20:15 | 52.67575 | -1.28230 | 26136 ft | 404 kts | 325° |
| 2026-05-07 20:16 | 52.69974 | -1.30671 | 26457 ft | 406 kts | 325° |
| 2026-05-07 20:16 | 52.72383 | -1.33122 | 26794 ft | 407 kts | 325° |
| 2026-05-07 20:16 | 52.74811 | -1.35592 | 27192 ft | 409 kts | 325° |
| 2026-05-07 20:16 | 52.77239 | -1.38064 | 27514 ft | 411 kts | 326° |
| 2026-05-07 20:17 | 52.79653 | -1.40527 | 27767 ft | 414 kts | 326° |
| 2026-05-07 20:17 | 52.82118 | -1.43044 | 28077 ft | 416 kts | 326° |
| 2026-05-07 20:17 | 52.84619 | -1.45603 | 28407 ft | 418 kts | 326° |
| 2026-05-07 20:17 | 52.87091 | -1.48135 | 28720 ft | 420 kts | 326° |
| 2026-05-07 20:18 | 52.89581 | -1.50689 | 29003 ft | 422 kts | 326° |
| 2026-05-07 20:18 | 52.92079 | -1.53254 | 29312 ft | 423 kts | 325° |
| 2026-05-07 20:18 | 52.94551 | -1.55798 | 29628 ft | 425 kts | 325° |
| 2026-05-07 20:18 | 52.97067 | -1.58390 | 29939 ft | 426 kts | 325° |
| 2026-05-07 20:19 | 52.99620 | -1.61022 | 30180 ft | 428 kts | 325° |
| 2026-05-07 20:19 | 53.02176 | -1.63661 | 30317 ft | 433 kts | 326° |
| 2026-05-07 20:19 | 53.04742 | -1.66229 | 30489 ft | 436 kts | 329° |
| 2026-05-07 20:19 | 53.07487 | -1.68427 | 30747 ft | 439 kts | 336° |
| 2026-05-07 20:20 | 53.10356 | -1.70214 | 31006 ft | 441 kts | 338° |
| 2026-05-07 20:20 | 53.13237 | -1.71953 | 31255 ft | 441 kts | 338° |
| 2026-05-07 20:20 | 53.16143 | -1.73707 | 31444 ft | 444 kts | 338° |
| 2026-05-07 20:20 | 53.19052 | -1.75478 | 31563 ft | 447 kts | 337° |
| 2026-05-07 20:21 | 53.21975 | -1.77273 | 31787 ft | 448 kts | 337° |
| 2026-05-07 20:21 | 53.24898 | -1.79082 | 31980 ft | 450 kts | 337° |
| 2026-05-07 20:21 | 53.27846 | -1.80916 | 32110 ft | 452 kts | 337° |
| 2026-05-07 20:21 | 53.30792 | -1.82755 | 32337 ft | 453 kts | 337° |
| 2026-05-07 20:22 | 53.33727 | -1.84591 | 32561 ft | 454 kts | 337° |
| 2026-05-07 20:22 | 53.36726 | -1.86469 | 32714 ft | 456 kts | 337° |
| 2026-05-07 20:22 | 53.39664 | -1.88311 | 32847 ft | 458 kts | 337° |
| 2026-05-07 20:22 | 53.42654 | -1.90189 | 33009 ft | 459 kts | 337° |
| 2026-05-07 20:23 | 53.45657 | -1.92078 | 33178 ft | 461 kts | 337° |
| 2026-05-07 20:23 | 53.48667 | -1.93974 | 33305 ft | 463 kts | 337° |
| 2026-05-07 20:23 | 53.51682 | -1.95875 | 33532 ft | 463 kts | 337° |
| 2026-05-07 20:23 | 53.54701 | -1.97781 | 33736 ft | 463 kts | 337° |
| 2026-05-07 20:24 | 53.57717 | -1.99690 | 33864 ft | 462 kts | 337° |
| 2026-05-07 20:24 | 53.60733 | -2.01601 | 34019 ft | 462 kts | 337° |
| 2026-05-07 20:24 | 53.63750 | -2.03516 | 34023 ft | 466 kts | 337° |
| 2026-05-07 20:25 | 53.69864 | -2.07405 | 34026 ft | 470 kts | 337° |
| 2026-05-07 20:25 | 53.75974 | -2.11329 | 34026 ft | 469 kts | 336° |
| 2026-05-07 20:26 | 53.81957 | -2.15479 | 34076 ft | 467 kts | 335° |
| 2026-05-07 20:26 | 53.87968 | -2.19653 | 34012 ft | 468 kts | 335° |
| 2026-05-07 20:27 | 53.94007 | -2.23782 | 34036 ft | 467 kts | 335° |
| 2026-05-07 20:27 | 54.00047 | -2.27926 | 34024 ft | 468 kts | 335° |
| 2026-05-07 20:28 | 54.06083 | -2.32086 | 34078 ft | 467 kts | 335° |
| 2026-05-07 20:28 | 54.12120 | -2.36255 | 34045 ft | 469 kts | 335° |
| 2026-05-07 20:29 | 54.18187 | -2.40458 | 34028 ft | 470 kts | 335° |
| 2026-05-07 20:29 | 54.24266 | -2.44682 | 34005 ft | 472 kts | 335° |
| 2026-05-07 20:30 | 54.30326 | -2.48909 | 33971 ft | 474 kts | 335° |
| 2026-05-07 20:30 | 54.36459 | -2.53199 | 33997 ft | 474 kts | 335° |
| 2026-05-07 20:31 | 54.42582 | -2.57496 | 34018 ft | 475 kts | 335° |
| 2026-05-07 20:31 | 54.48712 | -2.61813 | 33984 ft | 478 kts | 335° |
| 2026-05-07 20:32 | 54.54832 | -2.66136 | 34006 ft | 478 kts | 335° |
| 2026-05-07 20:32 | 54.60994 | -2.70504 | 34016 ft | 479 kts | 335° |
| 2026-05-07 20:33 | 54.67150 | -2.74880 | 34097 ft | 477 kts | 335° |
| 2026-05-07 20:33 | 54.73285 | -2.79256 | 34119 ft | 476 kts | 335° |
| 2026-05-07 20:34 | 54.79420 | -2.83648 | 34032 ft | 474 kts | 335° |
| 2026-05-07 20:34 | 54.82421 | -2.85798 | 34006 ft | 459 kts | 335° |
| 2026-05-07 20:34 | 54.85332 | -2.87887 | 33938 ft | 445 kts | 335° |
| 2026-05-07 20:34 | 54.88135 | -2.89903 | 33546 ft | 429 kts | 335° |
| 2026-05-07 20:35 | 54.90864 | -2.91872 | 32747 ft | 421 kts | 334° |
| 2026-05-07 20:35 | 54.93553 | -2.93823 | 31783 ft | 417 kts | 334° |
| 2026-05-07 20:35 | 54.96227 | -2.95767 | 30793 ft | 415 kts | 334° |
| 2026-05-07 20:35 | 54.98851 | -2.97678 | 29778 ft | 415 kts | 334° |
| 2026-05-07 20:36 | 55.01513 | -2.99618 | 28700 ft | 413 kts | 334° |
| 2026-05-07 20:36 | 55.04149 | -3.01539 | 27757 ft | 408 kts | 334° |
| 2026-05-07 20:36 | 55.06744 | -3.03432 | 26942 ft | 401 kts | 334° |
| 2026-05-07 20:36 | 55.09292 | -3.05294 | 26190 ft | 393 kts | 334° |
| 2026-05-07 20:37 | 55.11795 | -3.07125 | 25445 ft | 386 kts | 334° |
| 2026-05-07 20:37 | 55.14257 | -3.08929 | 24608 ft | 382 kts | 334° |
| 2026-05-07 20:37 | 55.16695 | -3.10718 | 23850 ft | 377 kts | 334° |
| 2026-05-07 20:37 | 55.19099 | -3.12480 | 23059 ft | 371 kts | 334° |
| 2026-05-07 20:38 | 55.21474 | -3.14223 | 22187 ft | 367 kts | 334° |
| 2026-05-07 20:38 | 55.23814 | -3.15944 | 21333 ft | 363 kts | 333° |
| 2026-05-07 20:38 | 55.26107 | -3.17631 | 20525 ft | 360 kts | 333° |
| 2026-05-07 20:38 | 55.28409 | -3.19324 | 19739 ft | 356 kts | 335° |
| 2026-05-07 20:39 | 55.30802 | -3.20406 | 18920 ft | 358 kts | 358° |
| 2026-05-07 20:39 | 55.33286 | -3.20033 | 18044 ft | 359 kts | 5° |
| 2026-05-07 20:39 | 55.35758 | -3.19548 | 17213 ft | 356 kts | 4° |
| 2026-05-07 20:39 | 55.38209 | -3.19134 | 16489 ft | 350 kts | 3° |
| 2026-05-07 20:40 | 55.40614 | -3.18748 | 15785 ft | 344 kts | 3° |
| 2026-05-07 20:40 | 55.42987 | -3.18376 | 15085 ft | 340 kts | 3° |
| 2026-05-07 20:40 | 55.45327 | -3.18010 | 14378 ft | 336 kts | 3° |
| 2026-05-07 20:40 | 55.47640 | -3.17648 | 13786 ft | 329 kts | 3° |
| 2026-05-07 20:41 | 55.49886 | -3.17296 | 13250 ft | 319 kts | 2° |
| 2026-05-07 20:41 | 55.52061 | -3.16953 | 12699 ft | 309 kts | 2° |
| 2026-05-07 20:41 | 55.54168 | -3.16620 | 12126 ft | 300 kts | 2° |
| 2026-05-07 20:41 | 55.56224 | -3.16297 | 11492 ft | 294 kts | 2° |
| 2026-05-07 20:42 | 55.58255 | -3.15980 | 10830 ft | 291 kts | 2° |
| 2026-05-07 20:42 | 55.60253 | -3.15665 | 10193 ft | 287 kts | 2° |
| 2026-05-07 20:42 | 55.62208 | -3.15358 | 9557 ft | 283 kts | 2° |
| 2026-05-07 20:42 | 55.64165 | -3.15049 | 8810 ft | 281 kts | 2° |
| 2026-05-07 20:43 | 55.66102 | -3.14743 | 8148 ft | 278 kts | 2° |
| 2026-05-07 20:43 | 55.68001 | -3.14442 | 7616 ft | 270 kts | 2° |
| 2026-05-07 20:43 | 55.69839 | -3.14149 | 7152 ft | 261 kts | 2° |
| 2026-05-07 20:43 | 55.71622 | -3.13865 | 6632 ft | 255 kts | 2° |
| 2026-05-07 20:44 | 55.73376 | -3.13498 | 5983 ft | 253 kts | 5° |
| 2026-05-07 20:44 | 55.75126 | -3.13056 | 5297 ft | 253 kts | 6° |
| 2026-05-07 20:44 | 55.76842 | -3.12611 | 4786 ft | 246 kts | 6° |
| 2026-05-07 20:44 | 55.77950 | -3.12323 | 4461 ft | 240 kts | 5° |
| 2026-05-07 20:45 | 55.79571 | -3.11904 | 3931 ft | 232 kts | 5° |
| 2026-05-07 20:45 | 55.81158 | -3.11499 | 3328 ft | 227 kts | 5° |
| 2026-05-07 20:45 | 55.82711 | -3.11105 | 3160 ft | 225 kts | 5° |
| 2026-05-07 20:45 | 55.84751 | -3.10589 | 2983 ft | 219 kts | 5° |
| 2026-05-07 20:46 | 55.85761 | -3.10332 | 2978 ft | 214 kts | 5° |
| 2026-05-07 20:46 | 55.87224 | -3.09964 | 2990 ft | 215 kts | 5° |
| 2026-05-07 20:46 | 55.88722 | -3.09587 | 3009 ft | 219 kts | 5° |
| 2026-05-07 20:46 | 55.90234 | -3.09206 | 3001 ft | 220 kts | 5° |
| 2026-05-07 20:47 | 55.91748 | -3.08823 | 3006 ft | 220 kts | 5° |
| 2026-05-07 20:47 | 55.93264 | -3.08440 | 2989 ft | 220 kts | 5° |
| 2026-05-07 20:47 | 55.94774 | -3.08058 | 3002 ft | 219 kts | 5° |
| 2026-05-07 20:47 | 55.96288 | -3.07675 | 2994 ft | 219 kts | 5° |
| 2026-05-07 20:48 | 55.97788 | -3.07294 | 2983 ft | 217 kts | 5° |
| 2026-05-07 20:48 | 55.99277 | -3.06917 | 2810 ft | 216 kts | 5° |
| 2026-05-07 20:48 | 56.00768 | -3.06539 | 2474 ft | 215 kts | 4° |
| 2026-05-07 20:48 | 56.02228 | -3.06614 | 2493 ft | 209 kts | 333° |
| 2026-05-07 20:49 | 56.03328 | -3.08095 | 2493 ft | 194 kts | 292° |
| 2026-05-07 20:49 | 56.03609 | -3.10283 | 2484 ft | 179 kts | 253° |
| 2026-05-07 20:49 | 56.03161 | -3.12284 | 2521 ft | 173 kts | 241° |
| 2026-05-07 20:49 | 56.02675 | -3.14281 | 2555 ft | 181 kts | 243° |
| 2026-05-07 20:50 | 56.02106 | -3.16283 | 2491 ft | 176 kts | 237° |
| 2026-05-07 20:50 | 56.01483 | -3.18135 | 2493 ft | 171 kts | 236° |
| 2026-05-07 20:50 | 56.00880 | -3.19913 | 2231 ft | 162 kts | 235° |
| 2026-05-07 20:50 | 56.00322 | -3.21559 | 2038 ft | 146 kts | 235° |
| 2026-05-07 20:51 | 55.99818 | -3.23045 | 1842 ft | 140 kts | 234° |
| 2026-05-07 20:51 | 55.99316 | -3.24524 | 1644 ft | 137 kts | 234° |
| 2026-05-07 20:51 | 55.98811 | -3.26013 | 1477 ft | 141 kts | 234° |
| 2026-05-07 20:51 | 55.98304 | -3.27509 | 1263 ft | 145 kts | 234° |
| 2026-05-07 20:52 | 55.97784 | -3.29041 | 1060 ft | 142 kts | 235° |
| 2026-05-07 20:52 | 55.97274 | -3.30597 | 807 ft | 155 kts | 235° |
| 2026-05-07 20:52 | 55.96715 | -3.32204 | 592 ft | 150 kts | 236° |
| 2026-05-07 20:52 | 55.96185 | -3.33751 | 391 ft | 141 kts | 237° |
| 2026-05-07 20:53 | 55.95677 | -3.35245 | 176 ft | 140 kts | 237° |
| 2026-05-07 20:53 | 55.95172 | -3.36715 | 113 ft | 137 kts | 238° |
| 2026-05-07 20:53 | 55.94825 | -3.37752 | 113 ft | 59 kts | 239° |
| 2026-05-07 20:53 | 55.94630 | -3.38330 | 115 ft | 47 kts | 238° |
| 2026-05-07 20:54 | 55.94497 | -3.38719 | 116 ft | 27 kts | 238° |
| 2026-05-07 20:54 | 55.94421 | -3.38919 | 119 ft | 14 kts | 216° |
| 2026-05-07 20:54 | 55.94329 | -3.38894 | 121 ft | 14 kts | 153° |
| 2026-05-07 20:54 | 55.94298 | -3.38749 | 118 ft | 15 kts | 66° |
| 2026-05-07 20:55 | 55.94350 | -3.38592 | 118 ft | 16 kts | 58° |
| 2026-05-07 20:55 | 55.94439 | -3.38338 | 113 ft | 32 kts | 58° |
| 2026-05-07 20:55 | 55.94555 | -3.37999 | 112 ft | 31 kts | 59° |
| 2026-05-07 20:55 | 55.94673 | -3.37640 | 114 ft | 35 kts | 59° |
| 2026-05-07 20:56 | 55.94776 | -3.37341 | 110 ft | 29 kts | 58° |
| 2026-05-07 20:56 | 55.94893 | -3.36997 | 108 ft | 27 kts | 59° |
| 2026-05-07 20:56 | 55.95005 | -3.36670 | 110 ft | 34 kts | 59° |
| 2026-05-07 20:56 | 55.95141 | -3.36269 | 108 ft | 42 kts | 59° |
| 2026-05-07 20:57 | 55.95236 | -3.35984 | 107 ft | 18 kts | 60° |
| 2026-05-07 20:57 | 55.95253 | -3.35844 | 108 ft | 12 kts | 120° |
| 2026-05-07 20:57 | 55.95196 | -3.35704 | 110 ft | 16 kts | 122° |
| 2026-05-07 20:57 | 55.95181 | -3.35592 | 111 ft | 9 kts | 84° |
| 2026-05-07 20:58 | 55.95202 | -3.35537 | 111 ft | 0 kts | 30° |